createdAt,value
2023-03-17T00:00:27.869Z,7.68
2023-03-17T00:02:59.568Z,7.65
2023-03-17T00:05:32.745Z,7.23
2023-03-17T00:08:02.044Z,6.00
2023-03-17T00:10:29.918Z,6.00
2023-03-17T00:12:57.634Z,7.78
2023-03-17T00:15:26.988Z,7.43
2023-03-17T00:17:55.604Z,6.57
2023-03-17T00:20:28.412Z,5.32
2023-03-17T00:23:00.124Z,5.57
2023-03-17T00:25:29.372Z,5.03
2023-03-17T00:27:58.201Z,5.45
2023-03-17T00:30:27.112Z,4.77
2023-03-17T00:32:56.859Z,4.97
2023-03-17T00:35:25.446Z,4.20
2023-03-17T00:37:53.831Z,5.32
2023-03-17T00:40:24.412Z,4.50
2023-03-17T00:42:53.088Z,4.87
2023-03-17T00:45:22.260Z,5.72
2023-03-17T00:47:51.495Z,5.20
2023-03-17T00:50:22.073Z,5.32
2023-03-17T00:52:51.794Z,5.18
2023-03-17T00:55:20.068Z,6.00
2023-03-17T00:57:51.643Z,5.05
2023-03-17T01:00:21.282Z,6.43
2023-03-17T01:02:48.996Z,6.47
2023-03-17T01:05:17.210Z,6.30
2023-03-17T01:07:52.998Z,6.03
2023-03-17T01:10:22.470Z,5.45
2023-03-17T01:12:51.589Z,5.25
2023-03-17T01:15:19.769Z,4.75
2023-03-17T01:17:47.380Z,5.50
2023-03-17T01:20:17.642Z,6.97
2023-03-17T01:22:45.433Z,5.57
2023-03-17T01:25:13.312Z,8.80
2023-03-17T01:27:41.741Z,5.93
2023-03-17T01:30:21.853Z,5.43
2023-03-17T01:32:49.933Z,4.93
2023-03-17T01:35:18.072Z,5.18
2023-03-17T01:37:46.192Z,4.38
2023-03-17T01:40:15.650Z,6.15
2023-03-17T01:42:45.105Z,6.25
2023-03-17T01:45:27.965Z,5.53
2023-03-17T01:47:58.164Z,7.30
2023-03-17T01:50:26.152Z,6.18
2023-03-17T01:52:53.843Z,5.30
2023-03-17T01:55:21.444Z,5.82
2023-03-17T01:57:54.707Z,6.90
2023-03-17T02:00:23.514Z,5.22
2023-03-17T02:02:51.888Z,5.57
2023-03-17T02:05:22.227Z,6.88
2023-03-17T02:07:51.371Z,6.65
2023-03-17T02:10:20.572Z,4.17
2023-03-17T02:12:49.388Z,6.22
2023-03-17T02:15:17.377Z,5.15
2023-03-17T02:17:50.139Z,8.02
2023-03-17T02:20:38.462Z,6.28
2023-03-17T02:23:08.549Z,4.90
2023-03-17T02:25:37.369Z,6.38
2023-03-17T02:28:08.409Z,3.80
2023-03-17T02:30:36.455Z,7.30
2023-03-17T02:33:04.372Z,4.65
2023-03-17T02:35:32.119Z,5.83
2023-03-17T02:37:59.981Z,5.50
2023-03-17T02:40:29.124Z,5.13
2023-03-17T02:42:56.875Z,7.25
2023-03-17T02:45:24.539Z,8.05
2023-03-17T02:47:52.518Z,7.40
2023-03-17T02:50:21.362Z,5.78
2023-03-17T02:52:48.913Z,4.78
2023-03-17T02:55:16.914Z,5.93
2023-03-17T02:57:46.145Z,6.65
2023-03-17T03:00:14.354Z,6.40
2023-03-17T03:02:42.777Z,5.93
2023-03-17T03:05:10.870Z,5.25
2023-03-17T03:07:38.556Z,6.30
2023-03-17T03:10:06.903Z,6.57
2023-03-17T03:12:35.060Z,5.27
2023-03-17T03:15:04.081Z,4.43
2023-03-17T03:17:31.661Z,6.45
2023-03-17T03:19:59.657Z,8.43
2023-03-17T03:22:27.315Z,5.57
2023-03-17T03:24:54.775Z,5.73
2023-03-17T03:27:22.394Z,6.90
2023-03-17T03:29:50.134Z,5.82
2023-03-17T03:32:19.013Z,5.93
2023-03-17T03:34:46.972Z,6.90
2023-03-17T03:37:14.840Z,5.80
2023-03-17T03:39:42.643Z,4.38
2023-03-17T03:42:10.379Z,5.55
2023-03-17T03:44:37.903Z,5.03
2023-03-17T03:47:07.614Z,3.80
2023-03-17T03:49:36.537Z,6.27
2023-03-17T03:52:04.107Z,5.75
2023-03-17T03:54:31.676Z,5.57
2023-03-17T03:56:59.257Z,8.05
2023-03-17T03:59:26.828Z,4.43
2023-03-17T04:01:54.802Z,5.67
2023-03-17T04:04:23.036Z,4.78
2023-03-17T04:06:52.063Z,5.63
2023-03-17T04:09:19.595Z,5.53
2023-03-17T04:11:47.216Z,5.88
2023-03-17T04:14:14.968Z,7.20
2023-03-17T04:16:43.600Z,6.93
2023-03-17T04:19:11.385Z,6.38
2023-03-17T04:21:39.049Z,4.82
2023-03-17T04:24:09.580Z,7.75
2023-03-17T04:26:37.208Z,4.57
2023-03-17T04:29:05.988Z,7.60
2023-03-17T04:31:33.597Z,7.32
2023-03-17T04:34:01.219Z,4.43
2023-03-17T04:36:28.938Z,5.57
2023-03-17T04:38:56.709Z,5.00
2023-03-17T04:41:25.757Z,6.90
2023-03-17T04:43:53.401Z,6.32
2023-03-17T04:46:21.037Z,6.57
2023-03-17T04:48:49.127Z,8.85
2023-03-17T04:51:17.108Z,7.03
2023-03-17T04:53:45.583Z,5.93
2023-03-17T04:56:13.081Z,4.80
2023-03-17T04:58:42.076Z,4.05
2023-03-17T05:01:10.039Z,5.07
2023-03-17T05:03:37.602Z,6.00
2023-03-17T05:06:06.100Z,4.63
2023-03-17T05:08:33.794Z,5.47
2023-03-17T05:11:01.345Z,9.23
2023-03-17T05:13:28.885Z,7.72
2023-03-17T05:16:04.286Z,5.03
2023-03-17T05:18:31.917Z,4.72
2023-03-17T05:20:59.459Z,7.93
2023-03-17T05:23:27.235Z,6.82
2023-03-17T05:25:54.893Z,5.40
2023-03-17T05:28:22.469Z,6.60
2023-03-17T05:30:51.681Z,6.53
2023-03-17T05:33:22.001Z,6.63
2023-03-17T05:35:49.690Z,8.73
2023-03-17T05:38:17.310Z,7.78
2023-03-17T05:40:44.948Z,8.67
2023-03-17T05:43:12.583Z,7.45
2023-03-17T05:45:40.317Z,6.72
2023-03-17T05:48:08.557Z,8.02
2023-03-17T05:50:37.514Z,6.03
2023-03-17T05:53:05.103Z,11.37
2023-03-17T05:55:32.788Z,8.60
2023-03-17T05:58:04.290Z,5.88
2023-03-17T06:00:32.363Z,8.50
2023-03-17T06:03:00.109Z,6.10
2023-03-17T06:08:19.465Z,7.45
2023-03-17T06:10:47.903Z,7.47
2023-03-17T06:13:16.629Z,8.20
2023-03-17T06:15:44.482Z,7.10
2023-03-17T06:18:12.003Z,6.97
2023-03-17T06:20:39.549Z,8.80
2023-03-17T06:23:08.784Z,9.20
2023-03-17T06:25:38.535Z,7.03
2023-03-17T06:28:07.149Z,5.07
2023-03-17T06:30:35.994Z,6.03
2023-03-17T06:33:04.676Z,5.95
2023-03-17T06:35:32.619Z,10.18
2023-03-17T06:38:00.984Z,7.75
2023-03-17T06:40:28.571Z,9.93
2023-03-17T06:42:57.582Z,8.83
2023-03-17T06:45:25.228Z,9.43
2023-03-17T06:47:52.770Z,7.75
2023-03-17T06:50:23.682Z,7.03
2023-03-17T06:52:51.545Z,11.40
2023-03-17T06:55:19.896Z,9.50
2023-03-17T06:57:49.763Z,11.13
2023-03-17T07:00:21.249Z,12.80
2023-03-17T07:02:49.417Z,9.88
2023-03-17T07:05:17.050Z,12.20
2023-03-17T07:07:44.711Z,13.23
2023-03-17T07:10:13.781Z,9.43
2023-03-17T07:12:41.298Z,11.98
2023-03-17T07:15:10.564Z,11.68
2023-03-17T07:17:39.943Z,9.23
2023-03-17T07:20:08.120Z,9.60
2023-03-17T07:22:35.720Z,8.30
2023-03-17T07:25:03.621Z,12.07
2023-03-17T07:27:31.163Z,12.43
2023-03-17T07:30:02.317Z,7.57
2023-03-17T07:32:29.883Z,10.03
2023-03-17T07:34:59.399Z,12.68
2023-03-17T07:37:27.170Z,13.52
2023-03-17T07:39:54.802Z,13.77
2023-03-17T07:42:22.573Z,11.75
2023-03-17T07:44:52.821Z,12.03
2023-03-17T07:47:20.479Z,12.85
2023-03-17T07:49:48.279Z,13.32
2023-03-17T07:52:17.495Z,8.85
2023-03-17T07:54:45.053Z,6.30
2023-03-17T07:57:13.268Z,10.67
2023-03-17T07:59:42.075Z,11.57
2023-03-17T08:02:12.411Z,16.98
2023-03-17T08:04:39.921Z,9.65
2023-03-17T08:07:08.398Z,11.35
2023-03-17T08:09:37.684Z,9.13
2023-03-17T08:12:05.957Z,12.85
2023-03-17T08:14:33.608Z,8.93
2023-03-17T08:17:01.220Z,10.82
2023-03-17T08:19:28.858Z,9.88
2023-03-17T08:21:56.581Z,10.13
2023-03-17T08:24:24.069Z,11.25
2023-03-17T08:26:53.125Z,8.35
2023-03-17T08:29:21.182Z,9.40
2023-03-17T08:31:54.936Z,11.38
2023-03-17T08:34:24.124Z,8.53
2023-03-17T08:36:52.528Z,8.65
2023-03-17T08:39:20.503Z,7.47
2023-03-17T08:41:48.233Z,12.02
2023-03-17T08:44:17.139Z,9.65
2023-03-17T08:46:44.716Z,11.73
2023-03-17T08:49:13.807Z,11.52
2023-03-17T08:51:41.833Z,12.07
2023-03-17T08:54:10.031Z,9.25
2023-03-17T08:56:38.112Z,9.00
2023-03-17T08:59:06.868Z,13.43
2023-03-17T09:01:36.136Z,14.30
2023-03-17T09:04:23.573Z,11.32
2023-03-17T09:07:02.885Z,12.52
2023-03-17T09:09:32.239Z,9.48
2023-03-17T09:11:59.766Z,12.70
2023-03-17T09:14:27.484Z,10.57
2023-03-17T09:16:56.957Z,9.45
2023-03-17T09:19:24.872Z,12.05
2023-03-17T09:21:52.697Z,8.32
2023-03-17T09:24:20.729Z,12.93
2023-03-17T09:26:48.304Z,9.03
2023-03-17T09:29:16.876Z,8.95
2023-03-17T09:31:44.572Z,7.70
2023-03-17T09:34:13.521Z,8.30
2023-03-17T09:36:41.397Z,9.73
2023-03-17T09:39:09.075Z,14.70
2023-03-17T09:41:46.884Z,10.18
2023-03-17T09:44:19.982Z,8.23
2023-03-17T09:46:50.717Z,8.25
2023-03-17T09:49:21.190Z,8.68
2023-03-17T09:51:49.175Z,8.43
2023-03-17T09:54:19.735Z,8.32
2023-03-17T09:56:50.360Z,10.20
2023-03-17T09:59:28.855Z,6.38
2023-03-17T10:01:57.054Z,7.88
2023-03-17T10:04:26.269Z,8.00
2023-03-17T10:07:00.263Z,5.43
2023-03-17T10:09:32.425Z,8.38
2023-03-17T10:12:03.940Z,7.60
2023-03-17T10:14:38.223Z,6.00
2023-03-17T10:17:11.629Z,7.93
2023-03-17T10:19:42.252Z,6.30
2023-03-17T10:22:16.094Z,9.48
2023-03-17T10:24:46.468Z,6.65
2023-03-17T10:27:19.691Z,5.88
2023-03-17T10:29:48.627Z,7.83
2023-03-17T10:32:17.089Z,6.32
2023-03-17T10:34:49.273Z,9.77
2023-03-17T10:37:19.150Z,9.10
2023-03-17T10:39:48.001Z,7.97
2023-03-17T10:42:22.588Z,10.53
2023-03-17T10:44:51.971Z,9.30
2023-03-17T10:47:25.009Z,6.70
2023-03-17T10:49:55.517Z,7.68
2023-03-17T10:52:24.285Z,7.55
2023-03-17T10:54:53.309Z,9.13
2023-03-17T10:57:22.120Z,9.25
2023-03-17T10:59:53.704Z,5.70
2023-03-17T11:02:25.556Z,7.93
2023-03-17T11:04:59.516Z,4.47
2023-03-17T11:07:35.556Z,6.57
2023-03-17T11:10:04.277Z,6.35
2023-03-17T11:12:36.778Z,7.70
2023-03-17T11:15:05.986Z,3.75
2023-03-17T11:17:46.445Z,6.65
2023-03-17T11:20:34.263Z,5.20
2023-03-17T11:23:04.965Z,5.80
2023-03-17T11:25:33.493Z,4.85
2023-03-17T11:28:08.379Z,3.28
2023-03-17T11:30:36.915Z,9.10
2023-03-17T11:33:07.883Z,5.50
2023-03-17T11:35:43.533Z,10.50
2023-03-17T11:38:22.114Z,5.95
2023-03-17T11:41:09.020Z,5.97
2023-03-17T11:43:43.938Z,9.85
2023-03-17T11:46:14.083Z,5.70
2023-03-17T11:48:45.839Z,5.55
2023-03-17T11:51:20.201Z,5.43
2023-03-17T11:54:06.031Z,3.90
2023-03-17T11:56:39.790Z,4.28
2023-03-17T11:59:11.742Z,5.37
2023-03-17T12:01:45.812Z,5.63
2023-03-17T12:04:18.478Z,4.57
2023-03-17T12:06:50.664Z,4.72
2023-03-17T12:09:22.189Z,5.75
2023-03-17T12:11:50.464Z,3.37
2023-03-17T12:14:25.014Z,6.03
2023-03-17T12:16:55.644Z,4.95
2023-03-17T12:19:26.192Z,3.85
2023-03-17T12:21:57.035Z,3.75
2023-03-17T12:24:28.876Z,4.60
2023-03-17T12:26:58.299Z,5.03
2023-03-17T12:29:30.460Z,3.55
2023-03-17T12:32:02.635Z,5.18
2023-03-17T12:34:33.672Z,5.47
2023-03-17T12:37:06.963Z,3.50
2023-03-17T12:39:36.214Z,4.18
2023-03-17T12:42:13.505Z,6.05
2023-03-17T12:44:48.073Z,4.68
2023-03-17T12:47:27.569Z,6.53
2023-03-17T12:50:05.396Z,4.10
2023-03-17T12:52:57.350Z,6.60
2023-03-17T12:55:27.424Z,7.20
2023-03-17T12:58:04.162Z,5.03
2023-03-17T13:00:33.442Z,5.90
2023-03-17T13:03:15.831Z,6.00
2023-03-17T13:05:47.183Z,2.47
2023-03-17T13:08:20.504Z,5.55
2023-03-17T13:10:51.177Z,5.10
2023-03-17T13:13:36.334Z,7.13
2023-03-17T13:16:05.924Z,2.70
2023-03-17T13:18:51.388Z,5.50
2023-03-17T13:21:20.596Z,4.57
2023-03-17T13:23:54.026Z,7.73
2023-03-17T13:26:42.916Z,4.15
2023-03-17T13:29:24.302Z,4.53
2023-03-17T13:31:51.866Z,3.88
2023-03-17T13:34:20.817Z,4.35
2023-03-17T13:36:59.062Z,4.40
2023-03-17T13:39:41.192Z,4.75
2023-03-17T13:42:24.757Z,3.55
2023-03-17T13:45:02.810Z,4.60
2023-03-17T13:47:34.830Z,3.75
2023-03-17T13:50:03.910Z,6.10
2023-03-17T13:52:33.497Z,5.13
2023-03-17T13:55:03.232Z,5.75
2023-03-17T13:57:35.596Z,2.83
2023-03-17T14:00:15.344Z,7.75
2023-03-17T14:02:44.503Z,3.20
2023-03-17T14:05:20.635Z,3.53
2023-03-17T14:07:51.230Z,4.72
2023-03-17T14:10:20.520Z,5.22
2023-03-17T14:12:51.400Z,4.85
2023-03-17T14:15:22.755Z,2.30
2023-03-17T14:17:53.408Z,3.28
2023-03-17T14:20:22.709Z,4.65
2023-03-17T14:22:54.712Z,4.63
2023-03-17T14:25:23.273Z,2.45
2023-03-17T14:27:52.481Z,4.70
2023-03-17T14:30:23.213Z,3.10
2023-03-17T14:32:52.042Z,2.53
2023-03-17T14:35:24.612Z,3.72
2023-03-17T14:37:54.173Z,4.18
2023-03-17T14:40:23.045Z,4.93
2023-03-17T14:42:50.975Z,5.35
2023-03-17T14:45:22.618Z,3.75
2023-03-17T14:47:50.929Z,3.97
2023-03-17T14:50:19.480Z,4.32
2023-03-17T14:52:47.312Z,4.63
2023-03-17T14:55:15.791Z,3.05
2023-03-17T14:57:43.566Z,4.70
2023-03-17T15:00:24.145Z,4.38
2023-03-17T15:02:57.190Z,8.27
2023-03-17T15:05:26.434Z,9.07
2023-03-17T15:07:54.002Z,7.88
2023-03-17T15:10:22.886Z,7.28
2023-03-17T15:12:50.621Z,6.40
2023-03-17T15:15:23.712Z,6.25
2023-03-17T15:17:52.423Z,4.20
2023-03-17T15:20:21.567Z,3.22
2023-03-17T15:22:50.384Z,5.93
2023-03-17T15:25:19.552Z,4.70
2023-03-17T15:27:48.438Z,3.33
2023-03-17T15:30:16.708Z,4.27
2023-03-17T15:32:44.314Z,6.75
2023-03-17T15:35:13.849Z,5.43
2023-03-17T15:37:42.912Z,5.00
2023-03-17T15:40:10.980Z,3.05
2023-03-17T15:42:39.599Z,4.00
2023-03-17T15:45:10.900Z,6.28
2023-03-17T15:47:41.659Z,3.67
2023-03-17T15:50:16.366Z,6.85
2023-03-17T15:52:45.752Z,3.88
2023-03-17T15:55:17.626Z,5.57
2023-03-17T15:57:53.852Z,7.30
2023-03-17T16:00:22.950Z,7.97
2023-03-17T16:02:51.932Z,3.70
2023-03-17T16:05:20.699Z,5.38
2023-03-17T16:07:50.234Z,5.53
2023-03-17T16:10:19.330Z,5.20
2023-03-17T16:12:46.904Z,6.70
2023-03-17T16:15:23.140Z,6.82
2023-03-17T16:17:52.577Z,7.25
2023-03-17T16:20:24.578Z,5.47
2023-03-17T16:22:54.365Z,5.95
2023-03-17T16:25:24.892Z,7.28
2023-03-17T16:27:53.405Z,9.30
2023-03-17T16:30:23.301Z,4.53
2023-03-17T16:32:51.076Z,6.13
2023-03-17T16:35:20.331Z,5.60
2023-03-17T16:37:48.263Z,9.05
2023-03-17T16:40:21.751Z,8.65
2023-03-17T16:42:50.283Z,6.53
2023-03-17T16:45:27.133Z,9.63
2023-03-17T16:48:00.519Z,7.03
2023-03-17T16:50:30.160Z,6.00
2023-03-17T16:52:58.078Z,7.82
2023-03-17T16:55:27.831Z,6.10
2023-03-17T16:57:58.096Z,8.50
2023-03-17T17:00:26.863Z,7.10
2023-03-17T17:02:54.795Z,6.80
2023-03-17T17:05:23.924Z,9.18
2023-03-17T17:07:51.648Z,8.30
2023-03-17T17:10:20.364Z,8.77
2023-03-17T17:12:50.333Z,8.13
2023-03-17T17:15:19.062Z,7.65
2023-03-17T17:17:47.876Z,5.78
2023-03-17T17:20:16.584Z,7.38
2023-03-17T17:22:44.224Z,9.10
2023-03-17T17:25:12.184Z,6.70
2023-03-17T17:27:41.724Z,8.10
2023-03-17T17:30:12.396Z,8.13
2023-03-17T17:32:40.296Z,7.47
2023-03-17T17:35:08.597Z,7.63
2023-03-17T17:37:36.366Z,7.80
2023-03-17T17:40:05.900Z,9.60
2023-03-17T17:42:34.212Z,8.55
2023-03-17T17:45:01.821Z,9.95
2023-03-17T17:47:32.594Z,8.73
2023-03-17T17:50:00.415Z,5.68
2023-03-17T17:52:28.148Z,8.27
2023-03-17T17:54:55.855Z,6.38
2023-03-17T17:57:25.154Z,7.75
2023-03-17T17:59:52.715Z,7.33
2023-03-17T18:02:20.432Z,7.03
2023-03-17T18:04:51.628Z,8.90
2023-03-17T18:07:19.748Z,8.95
2023-03-17T18:09:47.262Z,8.80
2023-03-17T18:12:19.991Z,10.70
2023-03-17T18:14:47.496Z,7.45
2023-03-17T18:17:21.560Z,8.55
2023-03-17T18:19:52.884Z,5.45
2023-03-17T18:22:20.524Z,6.43
2023-03-17T18:24:48.521Z,8.13
2023-03-17T18:27:18.716Z,9.73
2023-03-17T18:29:47.248Z,7.03
2023-03-17T18:32:15.143Z,7.07
2023-03-17T18:34:44.246Z,5.47
2023-03-17T18:37:13.854Z,8.30
2023-03-17T18:39:42.082Z,8.18
2023-03-17T18:42:09.995Z,9.47
2023-03-17T18:44:37.868Z,7.50
2023-03-17T18:47:05.844Z,12.10
2023-03-17T18:49:33.524Z,10.25
2023-03-17T18:52:01.611Z,10.32
2023-03-17T18:54:31.993Z,12.90
2023-03-17T18:56:59.589Z,7.72
2023-03-17T18:59:27.318Z,9.32
2023-03-17T19:01:54.946Z,7.72
2023-03-17T19:04:22.506Z,8.48
2023-03-17T19:06:50.016Z,11.90
2023-03-17T19:09:17.758Z,8.90
2023-03-17T19:11:46.891Z,7.40
2023-03-17T19:14:15.229Z,7.40
2023-03-17T19:16:42.929Z,8.52
2023-03-17T19:19:15.317Z,9.00
2023-03-17T19:21:42.870Z,9.82
2023-03-17T19:24:12.412Z,11.27
2023-03-17T19:26:40.121Z,6.35
2023-03-17T19:29:10.242Z,8.90
2023-03-17T19:31:41.696Z,6.23
2023-03-17T19:34:15.346Z,6.20
2023-03-17T19:36:43.794Z,7.20
2023-03-17T19:39:11.855Z,9.10
2023-03-17T19:41:39.647Z,8.20
2023-03-17T19:44:08.174Z,7.03
2023-03-17T19:46:38.351Z,8.85
2023-03-17T19:49:06.899Z,6.38
2023-03-17T19:51:37.590Z,9.40
2023-03-17T19:54:06.106Z,8.55
2023-03-17T19:56:33.800Z,8.40
2023-03-17T19:59:01.549Z,9.30
2023-03-17T20:01:30.281Z,8.43
2023-03-17T20:03:59.627Z,10.38
2023-03-17T20:06:30.864Z,6.40
2023-03-17T20:08:58.505Z,6.30
2023-03-17T20:11:27.160Z,6.97
2023-03-17T20:13:54.909Z,7.57
2023-03-17T20:16:22.632Z,8.93
2023-03-17T20:18:50.303Z,9.45
2023-03-17T20:21:19.242Z,6.87
2023-03-17T20:23:46.825Z,7.20
2023-03-17T20:26:14.645Z,10.18
2023-03-17T20:28:42.296Z,10.57
2023-03-17T20:31:09.962Z,7.40
2023-03-17T20:33:37.740Z,6.97
2023-03-17T20:36:05.937Z,9.15
2023-03-17T20:38:36.883Z,10.73
2023-03-17T20:41:09.535Z,6.90
2023-03-17T20:43:37.454Z,8.48
2023-03-17T20:46:08.534Z,9.57
2023-03-17T20:48:37.399Z,14.48
2023-03-17T20:51:06.100Z,9.60
2023-03-17T20:53:36.177Z,9.18
2023-03-17T20:56:04.838Z,6.97
2023-03-17T20:58:32.668Z,9.67
2023-03-17T21:01:02.985Z,8.30
2023-03-17T21:03:31.107Z,9.75
2023-03-17T21:05:59.040Z,8.95
2023-03-17T21:08:26.662Z,7.68
2023-03-17T21:10:55.731Z,7.83
2023-03-17T21:13:23.326Z,7.63
2023-03-17T21:15:50.909Z,6.32
2023-03-17T21:18:18.918Z,8.77
2023-03-17T21:23:11.558Z,3.58
2023-03-17T21:25:39.265Z,4.23
2023-03-17T21:28:08.576Z,4.95
2023-03-17T21:30:36.949Z,5.82
2023-03-17T21:35:50.613Z,6.60
2023-03-17T21:38:18.327Z,7.03
2023-03-17T21:40:45.926Z,4.97
2023-03-17T21:43:15.664Z,5.00
2023-03-17T21:45:44.263Z,5.35
2023-03-17T21:48:11.910Z,11.27
2023-03-17T21:50:39.742Z,7.03
2023-03-17T21:53:07.375Z,9.07
2023-03-17T21:55:35.633Z,8.23
2023-03-17T21:58:03.593Z,10.52
2023-03-17T22:00:39.403Z,16.00
2023-03-17T22:03:12.591Z,10.25
2023-03-17T22:05:40.188Z,9.57
2023-03-17T22:08:08.553Z,12.63
2023-03-17T22:10:36.113Z,11.32
2023-03-17T22:13:03.699Z,10.50
2023-03-17T22:15:32.646Z,13.43
2023-03-17T22:18:00.383Z,14.03
2023-03-17T22:20:30.020Z,14.07
2023-03-17T22:22:58.446Z,14.20
2023-03-17T22:25:26.161Z,16.33
2023-03-17T22:27:54.249Z,9.75
2023-03-17T22:30:22.041Z,11.93
2023-03-17T22:32:51.329Z,12.35
2023-03-17T22:35:20.661Z,10.82
2023-03-17T22:37:48.205Z,8.87
2023-03-17T22:40:15.923Z,8.80
2023-03-17T22:42:43.467Z,12.50
2023-03-17T22:45:13.090Z,10.60
2023-03-17T22:47:41.145Z,9.35
2023-03-17T22:50:10.887Z,12.03
2023-03-17T22:52:38.678Z,9.95
2023-03-17T22:55:07.933Z,10.27
2023-03-17T22:57:35.860Z,12.02
2023-03-17T23:00:05.620Z,12.68
2023-03-17T23:02:33.518Z,10.83
2023-03-17T23:05:03.192Z,13.55
2023-03-17T23:07:47.804Z,15.50
2023-03-17T23:10:19.631Z,10.73
2023-03-17T23:12:47.273Z,13.35
2023-03-17T23:15:15.230Z,12.57
2023-03-17T23:17:42.922Z,11.88
2023-03-17T23:20:11.257Z,11.65
2023-03-17T23:22:40.120Z,12.27
2023-03-17T23:25:08.534Z,10.48
2023-03-17T23:27:36.306Z,14.63
2023-03-17T23:30:04.251Z,14.23
2023-03-17T23:32:32.086Z,13.07
2023-03-17T23:34:59.979Z,10.85
2023-03-17T23:37:27.632Z,10.75
2023-03-17T23:39:56.923Z,11.67
2023-03-17T23:42:24.891Z,10.85
2023-03-17T23:44:52.632Z,10.18
2023-03-17T23:47:20.531Z,11.60
2023-03-17T23:49:48.325Z,10.25
2023-03-17T23:52:17.858Z,8.67
2023-03-17T23:54:45.493Z,9.75
2023-03-17T23:57:16.007Z,9.77
2023-03-17T23:59:44.690Z,9.25
